sensor_id;sensor_type;location;lat;lon;timestamp;pressure;altitude;pressure_sealevel;temperature;humidity
7333;BME280;3707;43.618;25.342;2023-04-22T00:02:14;99862.09;;;14.35;100.00
7333;BME280;3707;43.618;25.342;2023-04-22T00:04:41;99876.88;;;14.41;100.00
7333;BME280;3707;43.618;25.342;2023-04-22T00:07:10;99806.59;;;13.89;100.00
7333;BME280;3707;43.618;25.342;2023-04-22T00:09:37;99874.25;;;14.30;100.00
7333;BME280;3707;43.618;25.342;2023-04-22T00:12:04;99871.63;;;14.31;100.00
7333;BME280;3707;43.618;25.342;2023-04-22T00:14:31;99872.53;;;14.29;100.00
7333;BME280;3707;43.618;25.342;2023-04-22T00:16:58;99880.38;;;14.21;100.00
7333;BME280;3707;43.618;25.342;2023-04-22T00:19:26;99875.19;;;14.15;100.00
7333;BME280;3707;43.618;25.342;2023-04-22T00:21:53;99860.44;;;14.08;100.00
7333;BME280;3707;43.618;25.342;2023-04-22T00:24:19;99834.38;;;13.93;100.00
7333;BME280;3707;43.618;25.342;2023-04-22T00:26:46;99870.84;;;14.08;100.00
7333;BME280;3707;43.618;25.342;2023-04-22T00:29:13;99872.56;;;14.11;100.00
7333;BME280;3707;43.618;25.342;2023-04-22T00:31:40;99863.88;;;14.07;100.00
7333;BME280;3707;43.618;25.342;2023-04-22T00:34:07;99887.34;;;14.18;100.00
7333;BME280;3707;43.618;25.342;2023-04-22T00:36:35;99882.13;;;14.07;100.00
7333;BME280;3707;43.618;25.342;2023-04-22T00:39:02;99885.63;;;14.03;100.00
7333;BME280;3707;43.618;25.342;2023-04-22T00:41:29;99870.91;;;13.84;100.00
7333;BME280;3707;43.618;25.342;2023-04-22T00:43:57;99890.88;;;13.94;100.00
7333;BME280;3707;43.618;25.342;2023-04-22T00:46:25;99887.41;;;13.86;100.00
7333;BME280;3707;43.618;25.342;2023-04-22T00:48:52;99860.50;;;13.60;100.00
7333;BME280;3707;43.618;25.342;2023-04-22T00:51:19;99895.22;;;13.77;100.00
7333;BME280;3707;43.618;25.342;2023-04-22T00:53:47;99811.03;;;13.29;100.00
7333;BME280;3707;43.618;25.342;2023-04-22T00:56:14;99896.97;;;13.75;100.00
7333;BME280;3707;43.618;25.342;2023-04-22T00:58:42;99899.56;;;13.57;100.00
7333;BME280;3707;43.618;25.342;2023-04-22T01:01:09;99894.34;;;13.38;100.00
7333;BME280;3707;43.618;25.342;2023-04-22T01:03:37;99900.44;;;13.36;100.00
7333;BME280;3707;43.618;25.342;2023-04-22T01:06:06;99880.47;;;13.24;100.00
7333;BME280;3707;43.618;25.342;2023-04-22T01:08:33;99877.00;;;13.19;100.00
7333;BME280;3707;43.618;25.342;2023-04-22T01:11:01;99878.72;;;13.14;100.00
7333;BME280;3707;43.618;25.342;2023-04-22T01:13:28;99888.28;;;13.18;100.00
7333;BME280;3707;43.618;25.342;2023-04-22T01:15:57;99861.34;;;13.16;100.00
7333;BME280;3707;43.618;25.342;2023-04-22T01:18:25;99896.94;;;13.28;100.00
7333;BME280;3707;43.618;25.342;2023-04-22T01:20:53;99857.91;;;13.11;100.00
7333;BME280;3707;43.618;25.342;2023-04-22T01:23:22;99892.63;;;13.34;100.00
7333;BME280;3707;43.618;25.342;2023-04-22T01:25:48;99896.09;;;13.43;100.00
7333;BME280;3707;43.618;25.342;2023-04-22T01:28:16;99895.22;;;13.36;100.00
7333;BME280;3707;43.618;25.342;2023-04-22T01:30:43;99870.06;;;13.33;100.00
7333;BME280;3707;43.618;25.342;2023-04-22T01:33:10;99890.00;;;13.53;100.00
7333;BME280;3707;43.618;25.342;2023-04-22T01:35:38;99890.91;;;13.58;100.00
7333;BME280;3707;43.618;25.342;2023-04-22T01:38:07;99893.50;;;13.65;100.00
7333;BME280;3707;43.618;25.342;2023-04-22T01:40:37;99866.56;;;13.56;100.00
7333;BME280;3707;43.618;25.342;2023-04-22T01:43:04;99883.97;;;13.66;100.00
7333;BME280;3707;43.618;25.342;2023-04-22T01:45:31;99883.94;;;13.69;100.00
7333;BME280;3707;43.618;25.342;2023-04-22T01:47:58;99887.41;;;13.72;100.00
7333;BME280;3707;43.618;25.342;2023-04-22T01:50:25;99877.84;;;13.74;100.00
7333;BME280;3707;43.618;25.342;2023-04-22T01:52:52;99877.00;;;13.80;100.00
7333;BME280;3707;43.618;25.342;2023-04-22T01:55:19;99879.59;;;13.78;100.00
7333;BME280;3707;43.618;25.342;2023-04-22T01:57:47;99872.66;;;13.80;100.00
7333;BME280;3707;43.618;25.342;2023-04-22T02:00:14;99850.94;;;13.62;100.00
7333;BME280;3707;43.618;25.342;2023-04-22T02:02:41;99876.09;;;13.78;100.00
7333;BME280;3707;43.618;25.342;2023-04-22T02:05:08;99863.13;;;13.66;100.00
7333;BME280;3707;43.618;25.342;2023-04-22T02:07:35;99869.16;;;13.74;100.00
7333;BME280;3707;43.618;25.342;2023-04-22T02:10:02;99875.22;;;13.77;100.00
7333;BME280;3707;43.618;25.342;2023-04-22T02:12:29;99885.63;;;13.88;100.00
7333;BME280;3707;43.618;25.342;2023-04-22T02:14:58;99880.44;;;13.97;100.00
7333;BME280;3707;43.618;25.342;2023-04-22T02:17:24;99866.50;;;13.95;100.00
7333;BME280;3707;43.618;25.342;2023-04-22T02:19:51;99873.47;;;14.05;100.00
7333;BME280;3707;43.618;25.342;2023-04-22T02:22:18;99872.59;;;13.99;100.00
7333;BME280;3707;43.618;25.342;2023-04-22T02:24:45;99877.78;;;14.11;100.00
7333;BME280;3707;43.618;25.342;2023-04-22T02:27:12;99877.78;;;14.14;100.00
7333;BME280;3707;43.618;25.342;2023-04-22T02:29:38;99868.25;;;14.08;100.00
7333;BME280;3707;43.618;25.342;2023-04-22T02:32:07;99844.78;;;14.01;100.00
7333;BME280;3707;43.618;25.342;2023-04-22T02:34:34;99882.97;;;14.20;100.00
7333;BME280;3707;43.618;25.342;2023-04-22T02:37:00;99882.09;;;14.25;100.00
7333;BME280;3707;43.618;25.342;2023-04-22T02:39:27;99797.94;;;13.79;100.00
7333;BME280;3707;43.618;25.342;2023-04-22T02:41:54;99875.13;;;14.27;100.00
7333;BME280;3707;43.618;25.342;2023-04-22T02:44:21;99877.72;;;14.27;100.00
7333;BME280;3707;43.618;25.342;2023-04-22T02:46:48;99876.00;;;14.29;100.00
7333;BME280;3707;43.618;25.342;2023-04-22T02:49:16;99873.41;;;14.29;100.00
7333;BME280;3707;43.618;25.342;2023-04-22T02:51:43;99875.13;;;14.27;100.00
7333;BME280;3707;43.618;25.342;2023-04-22T02:54:09;99876.88;;;14.28;100.00
7333;BME280;3707;43.618;25.342;2023-04-22T02:56:36;99873.41;;;14.26;100.00
7333;BME280;3707;43.618;25.342;2023-04-22T02:59:03;99847.38;;;14.11;100.00
7333;BME280;3707;43.618;25.342;2023-04-22T03:01:30;99874.31;;;14.19;100.00
7333;BME280;3707;43.618;25.342;2023-04-22T03:03:57;99874.28;;;14.16;100.00
7333;BME280;3707;43.618;25.342;2023-04-22T03:06:25;99872.53;;;14.21;100.00
7333;BME280;3707;43.618;25.342;2023-04-22T03:08:52;99836.97;;;13.99;100.00
7333;BME280;3707;43.618;25.342;2023-04-22T03:11:19;99869.06;;;14.16;100.00
7333;BME280;3707;43.618;25.342;2023-04-22T03:13:45;99870.81;;;14.17;100.00
7333;BME280;3707;43.618;25.342;2023-04-22T03:16:12;99834.38;;;13.98;100.00
7333;BME280;3707;43.618;25.342;2023-04-22T03:18:39;99870.81;;;14.13;100.00
7333;BME280;3707;43.618;25.342;2023-04-22T03:21:06;99873.47;;;14.08;100.00
7333;BME280;3707;43.618;25.342;2023-04-22T03:23:34;99864.75;;;14.09;100.00
7333;BME280;3707;43.618;25.342;2023-04-22T03:26:01;99871.72;;;14.09;100.00
7333;BME280;3707;43.618;25.342;2023-04-22T03:28:28;99871.69;;;14.13;100.00
7333;BME280;3707;43.618;25.342;2023-04-22T03:30:54;99862.16;;;14.11;100.00
7333;BME280;3707;43.618;25.342;2023-04-22T03:33:21;99871.69;;;14.22;100.00
7333;BME280;3707;43.618;25.342;2023-04-22T03:35:48;99851.72;;;14.15;100.00
7333;BME280;3707;43.618;25.342;2023-04-22T03:38:15;99882.97;;;14.36;100.00
7333;BME280;3707;43.618;25.342;2023-04-22T03:40:43;99884.69;;;14.44;100.00
7333;BME280;3707;43.618;25.342;2023-04-22T03:43:10;99889.91;;;14.44;100.00
7333;BME280;3707;43.618;25.342;2023-04-22T03:45:37;99875.97;;;14.38;100.00
7333;BME280;3707;43.618;25.342;2023-04-22T03:48:04;99816.09;;;14.08;100.00
7333;BME280;3707;43.618;25.342;2023-04-22T03:50:32;99895.00;;;14.63;100.00
7333;BME280;3707;43.618;25.342;2023-04-22T03:52:58;99897.56;;;14.74;100.00
7333;BME280;3707;43.618;25.342;2023-04-22T03:55:25;99903.63;;;14.86;100.00
7333;BME280;3707;43.618;25.342;2023-04-22T03:57:53;99901.78;;;14.99;100.00
7333;BME280;3707;43.618;25.342;2023-04-22T04:00:20;99913.09;;;15.04;100.00
7333;BME280;3707;43.618;25.342;2023-04-22T04:02:47;99916.53;;;15.09;100.00
7333;BME280;3707;43.618;25.342;2023-04-22T04:05:14;99899.16;;;15.02;100.00
7333;BME280;3707;43.618;25.342;2023-04-22T04:07:41;99916.53;;;15.06;100.00
7333;BME280;3707;43.618;25.342;2023-04-22T04:10:09;99901.78;;;14.99;100.00
7333;BME280;3707;43.618;25.342;2023-04-22T04:12:36;99906.16;;;15.02;100.00
7333;BME280;3707;43.618;25.342;2023-04-22T04:15:05;99923.56;;;15.00;100.00
7333;BME280;3707;43.618;25.342;2023-04-22T04:17:32;99928.09;;;14.58;100.00
7333;BME280;3707;43.618;25.342;2023-04-22T04:19:59;99940.31;;;14.50;100.00
7333;BME280;3707;43.618;25.342;2023-04-22T04:22:26;99959.38;;;14.64;100.00
7333;BME280;3707;43.618;25.342;2023-04-22T04:24:53;99942.03;;;14.54;100.00
7333;BME280;3707;43.618;25.342;2023-04-22T04:27:20;99965.50;;;14.62;100.00
7333;BME280;3707;43.618;25.342;2023-04-22T04:29:48;99975.03;;;14.67;100.00
7333;BME280;3707;43.618;25.342;2023-04-22T04:32:17;99960.22;;;14.71;100.00
7333;BME280;3707;43.618;25.342;2023-04-22T04:34:43;99957.69;;;14.54;100.00
7333;BME280;3707;43.618;25.342;2023-04-22T04:37:10;99962.94;;;14.44;100.00
7333;BME280;3707;43.618;25.342;2023-04-22T04:39:37;99960.28;;;14.59;100.00
7333;BME280;3707;43.618;25.342;2023-04-22T04:42:04;99956.78;;;14.60;100.00
7333;BME280;3707;43.618;25.342;2023-04-22T04:44:31;99973.25;;;14.77;100.00
7333;BME280;3707;43.618;25.342;2023-04-22T04:46:58;99976.72;;;14.82;100.00
7333;BME280;3707;43.618;25.342;2023-04-22T04:49:26;99950.63;;;14.82;100.00
7333;BME280;3707;43.618;25.342;2023-04-22T04:51:55;99972.28;;;15.01;100.00
7333;BME280;3707;43.618;25.342;2023-04-22T04:54:21;99981.78;;;15.18;100.00
7333;BME280;3707;43.618;25.342;2023-04-22T04:56:48;99981.75;;;15.24;100.00
7333;BME280;3707;43.618;25.342;2023-04-22T04:59:15;99959.16;;;15.13;100.00
7333;BME280;3707;43.618;25.342;2023-04-22T05:01:42;99991.31;;;15.25;100.00
7333;BME280;3707;43.618;25.342;2023-04-22T05:04:09;99986.13;;;15.18;100.00
7333;BME280;3707;43.618;25.342;2023-04-22T05:06:37;99980.91;;;15.16;100.00
7333;BME280;3707;43.618;25.342;2023-04-22T05:09:04;99991.44;;;15.01;100.00
7333;BME280;3707;43.618;25.342;2023-04-22T05:11:32;99978.31;;;15.15;100.00
7333;BME280;3707;43.618;25.342;2023-04-22T05:13:59;99999.94;;;15.38;100.00
7333;BME280;3707;43.618;25.342;2023-04-22T05:16:26;99995.56;;;15.42;100.00
7333;BME280;3707;43.618;25.342;2023-04-22T05:18:53;99875.97;;;14.42;100.00
7333;BME280;3707;43.618;25.342;2023-04-22T05:21:19;99998.50;;;14.72;100.00
7333;BME280;3707;43.618;25.342;2023-04-22T05:23:47;99992.50;;;14.36;100.00
7333;BME280;3707;43.618;25.342;2023-04-22T05:26:14;99999.47;;;14.48;100.00
7333;BME280;3707;43.618;25.342;2023-04-22T05:28:41;100001.13;;;14.63;100.00
7333;BME280;3707;43.618;25.342;2023-04-22T05:31:08;100001.09;;;14.79;100.00
7333;BME280;3707;43.618;25.342;2023-04-22T05:33:35;100005.41;;;14.88;100.00
7333;BME280;3707;43.618;25.342;2023-04-22T05:36:01;100017.53;;;15.04;100.00
7333;BME280;3707;43.618;25.342;2023-04-22T05:38:28;100013.94;;;15.23;100.00
7333;BME280;3707;43.618;25.342;2023-04-22T05:40:56;100005.03;;;15.64;100.00
7333;BME280;3707;43.618;25.342;2023-04-22T05:43:23;100015.44;;;15.76;100.00
7333;BME280;3707;43.618;25.342;2023-04-22T05:45:50;100007.63;;;15.71;100.00
7333;BME280;3707;43.618;25.342;2023-04-22T05:48:17;100008.31;;;15.93;100.00
7333;BME280;3707;43.618;25.342;2023-04-22T05:50:43;100014.28;;;16.10;100.00
7333;BME280;3707;43.618;25.342;2023-04-22T05:53:10;100004.69;;;16.12;100.00
7333;BME280;3707;43.618;25.342;2023-04-22T05:55:37;100022.00;;;16.25;100.00
7333;BME280;3707;43.618;25.342;2023-04-22T05:58:05;100008.03;;;16.23;100.00
7333;BME280;3707;43.618;25.342;2023-04-22T06:00:32;100035.03;;;16.31;100.00
7333;BME280;3707;43.618;25.342;2023-04-22T06:02:59;100043.72;;;16.36;100.00
7333;BME280;3707;43.618;25.342;2023-04-22T06:05:25;100049.78;;;16.40;100.00
7333;BME280;3707;43.618;25.342;2023-04-22T06:07:53;100045.31;;;16.50;100.00
7333;BME280;3707;43.618;25.342;2023-04-22T06:10:20;100050.50;;;16.56;100.00
7333;BME280;3707;43.618;25.342;2023-04-22T06:12:46;100033.16;;;16.41;100.00
7333;BME280;3707;43.618;25.342;2023-04-22T06:15:15;100056.41;;;16.79;100.00
7333;BME280;3707;43.618;25.342;2023-04-22T06:17:41;100059.69;;;16.98;100.00
7333;BME280;3707;43.618;25.342;2023-04-22T06:20:10;100047.34;;;17.07;100.00
7333;BME280;3707;43.618;25.342;2023-04-22T06:22:37;100063.16;;;16.98;100.00
7333;BME280;3707;43.618;25.342;2023-04-22T06:25:04;100063.38;;;16.80;100.00
7333;BME280;3707;43.618;25.342;2023-04-22T06:27:31;100058.97;;;16.83;100.00
7333;BME280;3707;43.618;25.342;2023-04-22T06:29:58;100068.31;;;17.07;100.00
7333;BME280;3707;43.618;25.342;2023-04-22T06:32:26;100064.66;;;17.20;100.00
7333;BME280;3707;43.618;25.342;2023-04-22T06:34:53;100073.09;;;17.44;100.00
7333;BME280;3707;43.618;25.342;2023-04-22T06:37:20;100072.31;;;17.37;100.00
7333;BME280;3707;43.618;25.342;2023-04-22T06:39:46;100065.22;;;16.72;100.00
7333;BME280;3707;43.618;25.342;2023-04-22T06:42:13;100064.41;;;16.65;100.00
7333;BME280;3707;43.618;25.342;2023-04-22T06:44:40;100086.59;;;17.12;100.00
7333;BME280;3707;43.618;25.342;2023-04-22T06:47:07;100090.72;;;17.32;100.00
7333;BME280;3707;43.618;25.342;2023-04-22T06:49:36;100089.63;;;17.49;100.00
7333;BME280;3707;43.618;25.342;2023-04-22T06:52:03;100092.44;;;17.99;100.00
7333;BME280;3707;43.618;25.342;2023-04-22T06:54:30;100096.44;;;18.24;100.00
7333;BME280;3707;43.618;25.342;2023-04-22T06:56:57;100099.53;;;18.51;98.32
7333;BME280;3707;43.618;25.342;2023-04-22T06:59:24;100106.59;;;18.46;98.37
7333;BME280;3707;43.618;25.342;2023-04-22T07:01:51;100093.38;;;17.97;99.46
7333;BME280;3707;43.618;25.342;2023-04-22T07:04:18;100103.97;;;17.89;100.00
7333;BME280;3707;43.618;25.342;2023-04-22T07:06:46;100110.53;;;18.17;100.00
7333;BME280;3707;43.618;25.342;2023-04-22T07:09:13;100110.94;;;18.47;98.22
7333;BME280;3707;43.618;25.342;2023-04-22T07:11:39;100098.19;;;18.25;96.67
7333;BME280;3707;43.618;25.342;2023-04-22T07:14:06;100110.91;;;18.50;100.00
7333;BME280;3707;43.618;25.342;2023-04-22T07:16:33;100124.88;;;17.95;97.29
7333;BME280;3707;43.618;25.342;2023-04-22T07:19:00;100114.03;;;17.58;100.00
7333;BME280;3707;43.618;25.342;2023-04-22T07:21:27;100128.91;;;17.55;100.00
7333;BME280;3707;43.618;25.342;2023-04-22T07:23:55;100114.28;;;17.34;100.00
7333;BME280;3707;43.618;25.342;2023-04-22T07:26:22;100009.84;;;17.04;100.00
7333;BME280;3707;43.618;25.342;2023-04-22T07:28:48;100133.91;;;17.73;100.00
7333;BME280;3707;43.618;25.342;2023-04-22T07:31:15;100136.63;;;17.68;100.00
7333;BME280;3707;43.618;25.342;2023-04-22T07:33:42;100144.69;;;17.50;100.00
7333;BME280;3707;43.618;25.342;2023-04-22T07:36:09;100130.34;;;17.04;100.00
7333;BME280;3707;43.618;25.342;2023-04-22T07:38:36;100080.09;;;16.67;100.00
7333;BME280;3707;43.618;25.342;2023-04-22T07:41:04;100075.44;;;16.93;100.00
7333;BME280;3707;43.618;25.342;2023-04-22T07:43:31;100137.25;;;17.84;100.00
7333;BME280;3707;43.618;25.342;2023-04-22T07:45:57;100145.59;;;18.15;100.00
7333;BME280;3707;43.618;25.342;2023-04-22T07:48:24;100144.38;;;18.36;100.00
7333;BME280;3707;43.618;25.342;2023-04-22T07:50:51;100126.19;;;18.23;100.00
7333;BME280;3707;43.618;25.342;2023-04-22T07:53:18;100138.19;;;18.92;100.00
7333;BME280;3707;43.618;25.342;2023-04-22T07:55:45;100151.56;;;19.27;100.00
7333;BME280;3707;43.618;25.342;2023-04-22T07:58:15;100145.09;;;19.45;93.10
7333;BME280;3707;43.618;25.342;2023-04-22T08:00:42;100145.19;;;18.93;100.00
7333;BME280;3707;43.618;25.342;2023-04-22T08:03:09;100142.50;;;18.96;94.35
7333;BME280;3707;43.618;25.342;2023-04-22T08:05:35;100133.13;;;18.81;95.22
7333;BME280;3707;43.618;25.342;2023-04-22T08:08:02;100149.78;;;19.27;94.88
7333;BME280;3707;43.618;25.342;2023-04-22T08:10:29;100155.19;;;19.21;93.58
7333;BME280;3707;43.618;25.342;2023-04-22T08:12:56;100156.75;;;19.30;94.23
7333;BME280;3707;43.618;25.342;2023-04-22T08:15:24;100160.97;;;19.39;92.16
7333;BME280;3707;43.618;25.342;2023-04-22T08:17:51;100157.34;;;18.98;92.78
7333;BME280;3707;43.618;25.342;2023-04-22T08:20:17;100161.31;;;19.20;91.74
7333;BME280;3707;43.618;25.342;2023-04-22T08:22:44;100158.16;;;18.48;93.88
7333;BME280;3707;43.618;25.342;2023-04-22T08:25:11;100157.03;;;18.66;96.45
7333;BME280;3707;43.618;25.342;2023-04-22T08:27:38;100164.41;;;18.41;96.25
7333;BME280;3707;43.618;25.342;2023-04-22T08:30:06;100165.50;;;18.26;95.39
7333;BME280;3707;43.618;25.342;2023-04-22T08:32:34;100163.84;;;18.79;95.33
7333;BME280;3707;43.618;25.342;2023-04-22T08:35:01;100159.88;;;18.54;98.21
7333;BME280;3707;43.618;25.342;2023-04-22T08:37:28;100164.25;;;18.55;94.44
7333;BME280;3707;43.618;25.342;2023-04-22T08:39:55;100154.28;;;18.75;92.98
7333;BME280;3707;43.618;25.342;2023-04-22T08:42:22;100161.59;;;19.07;93.69
7333;BME280;3707;43.618;25.342;2023-04-22T08:44:49;100174.78;;;18.50;95.46
7333;BME280;3707;43.618;25.342;2023-04-22T08:47:17;100088.28;;;17.86;96.96
7333;BME280;3707;43.618;25.342;2023-04-22T08:49:46;100177.53;;;18.43;96.77
7333;BME280;3707;43.618;25.342;2023-04-22T08:52:13;100176.75;;;18.91;91.47
7333;BME280;3707;43.618;25.342;2023-04-22T08:54:40;100172.09;;;18.56;92.05
7333;BME280;3707;43.618;25.342;2023-04-22T08:57:07;100180.22;;;19.41;87.88
7333;BME280;3707;43.618;25.342;2023-04-22T08:59:35;100185.44;;;18.95;85.27
7333;BME280;3707;43.618;25.342;2023-04-22T09:02:04;100165.41;;;18.89;86.32
7333;BME280;3707;43.618;25.342;2023-04-22T09:04:31;100174.06;;;18.94;85.34
7333;BME280;3707;43.618;25.342;2023-04-22T09:07:00;100185.09;;;19.14;87.67
7333;BME280;3707;43.618;25.342;2023-04-22T09:09:28;100112.81;;;18.40;90.16
7333;BME280;3707;43.618;25.342;2023-04-22T09:11:56;100191.34;;;18.58;90.82
7333;BME280;3707;43.618;25.342;2023-04-22T09:14:23;100187.56;;;18.73;90.45
7333;BME280;3707;43.618;25.342;2023-04-22T09:16:51;100184.75;;;18.85;90.17
7333;BME280;3707;43.618;25.342;2023-04-22T09:19:17;100066.88;;;18.13;92.91
7333;BME280;3707;43.618;25.342;2023-04-22T09:21:48;100180.81;;;19.09;93.77
7333;BME280;3707;43.618;25.342;2023-04-22T09:24:17;100188.91;;;18.43;98.20
7333;BME280;3707;43.618;25.342;2023-04-22T09:26:45;100183.88;;;18.26;100.00
7333;BME280;3707;43.618;25.342;2023-04-22T09:29:14;100183.97;;;19.27;97.55
7333;BME280;3707;43.618;25.342;2023-04-22T09:31:47;100175.97;;;18.86;99.17
7333;BME280;3707;43.618;25.342;2023-04-22T09:34:13;100178.03;;;18.69;97.88
7333;BME280;3707;43.618;25.342;2023-04-22T09:36:41;100178.28;;;18.49;100.00
7333;BME280;3707;43.618;25.342;2023-04-22T09:39:11;100168.06;;;19.35;98.41
7333;BME280;3707;43.618;25.342;2023-04-22T09:41:39;100164.47;;;19.39;91.87
7333;BME280;3707;43.618;25.342;2023-04-22T09:44:09;100075.22;;;19.31;89.75
7333;BME280;3707;43.618;25.342;2023-04-22T09:46:36;100169.06;;;19.28;85.97
7333;BME280;3707;43.618;25.342;2023-04-22T09:49:03;100160.97;;;19.83;86.35
7333;BME280;3707;43.618;25.342;2023-04-22T09:51:30;100165.84;;;19.60;82.97
7333;BME280;3707;43.618;25.342;2023-04-22T09:54:00;100163.84;;;19.71;83.97
7333;BME280;3707;43.618;25.342;2023-04-22T09:56:42;100139.13;;;19.37;79.66
7333;BME280;3707;43.618;25.342;2023-04-22T09:59:09;100161.66;;;19.02;78.91
7333;BME280;3707;43.618;25.342;2023-04-22T10:01:37;100156.78;;;18.81;80.84
7333;BME280;3707;43.618;25.342;2023-04-22T10:04:05;100149.78;;;18.80;80.54
7333;BME280;3707;43.618;25.342;2023-04-22T10:06:32;100147.97;;;18.85;83.76
7333;BME280;3707;43.618;25.342;2023-04-22T10:08:59;100145.41;;;18.80;77.77
7333;BME280;3707;43.618;25.342;2023-04-22T10:11:26;100132.38;;;18.76;79.56
7333;BME280;3707;43.618;25.342;2023-04-22T10:13:55;100144.94;;;19.06;68.77
7333;BME280;3707;43.618;25.342;2023-04-22T10:16:23;100144.47;;;19.75;65.87
7333;BME280;3707;43.618;25.342;2023-04-22T10:18:51;100131.97;;;19.86;66.18
7333;BME280;3707;43.618;25.342;2023-04-22T10:21:22;100145.22;;;20.20;62.81
7333;BME280;3707;43.618;25.342;2023-04-22T10:23:49;100133.59;;;20.30;62.65
7333;BME280;3707;43.618;25.342;2023-04-22T10:26:37;100130.09;;;19.91;60.32
7333;BME280;3707;43.618;25.342;2023-04-22T10:29:07;100128.78;;;19.70;63.20
7333;BME280;3707;43.618;25.342;2023-04-22T10:31:36;100135.81;;;19.70;65.24
7333;BME280;3707;43.618;25.342;2023-04-22T10:34:13;100138.41;;;19.28;66.22
7333;BME280;3707;43.618;25.342;2023-04-22T10:36:59;100141.13;;;19.67;60.44
7333;BME280;3707;43.618;25.342;2023-04-22T10:39:27;100139.69;;;19.52;53.96
7333;BME280;3707;43.618;25.342;2023-04-22T10:41:57;100118.25;;;18.80;56.53
7333;BME280;3707;43.618;25.342;2023-04-22T10:44:48;100139.06;;;19.40;55.28
7333;BME280;3707;43.618;25.342;2023-04-22T10:47:25;100142.69;;;19.33;55.93
7333;BME280;3707;43.618;25.342;2023-04-22T10:50:12;100120.00;;;19.28;52.84
7333;BME280;3707;43.618;25.342;2023-04-22T10:52:40;100114.19;;;19.56;53.18
7333;BME280;3707;43.618;25.342;2023-04-22T10:55:07;100134.66;;;19.83;51.39
7333;BME280;3707;43.618;25.342;2023-04-22T10:57:39;100132.84;;;19.85;48.61
7333;BME280;3707;43.618;25.342;2023-04-22T11:00:25;100117.28;;;20.14;48.51
7333;BME280;3707;43.618;25.342;2023-04-22T11:02:53;100120.59;;;20.22;48.24
7333;BME280;3707;43.618;25.342;2023-04-22T11:05:31;100120.66;;;19.81;47.77
7333;BME280;3707;43.618;25.342;2023-04-22T11:08:02;100116.56;;;20.08;47.96
7333;BME280;3707;43.618;25.342;2023-04-22T11:10:34;100093.63;;;19.73;46.63
7333;BME280;3707;43.618;25.342;2023-04-22T11:13:02;100119.97;;;20.11;47.65
7333;BME280;3707;43.618;25.342;2023-04-22T11:15:34;100122.00;;;20.37;45.53
7333;BME280;3707;43.618;25.342;2023-04-22T11:18:01;100127.19;;;20.42;44.99
7333;BME280;3707;43.618;25.342;2023-04-22T11:20:28;100126.47;;;20.34;47.46
7333;BME280;3707;43.618;25.342;2023-04-22T11:22:56;100121.25;;;20.69;47.50
7333;BME280;3707;43.618;25.342;2023-04-22T11:25:24;100108.31;;;20.58;45.69
7333;BME280;3707;43.618;25.342;2023-04-22T11:27:52;100110.75;;;20.66;45.50
7333;BME280;3707;43.618;25.342;2023-04-22T11:30:20;100122.69;;;20.45;47.07
7333;BME280;3707;43.618;25.342;2023-04-22T11:32:50;100119.03;;;20.15;48.25
7333;BME280;3707;43.618;25.342;2023-04-22T11:35:18;100115.75;;;20.04;46.29
7333;BME280;3707;43.618;25.342;2023-04-22T11:37:46;100115.53;;;20.13;46.77
7333;BME280;3707;43.618;25.342;2023-04-22T11:40:16;100113.78;;;20.85;45.73
7333;BME280;3707;43.618;25.342;2023-04-22T11:42:44;100105.91;;;20.51;45.29
7333;BME280;3707;43.618;25.342;2023-04-22T11:45:11;100097.44;;;20.00;44.67
7333;BME280;3707;43.618;25.342;2023-04-22T11:47:39;100096.09;;;19.80;44.39
7333;BME280;3707;43.618;25.342;2023-04-22T11:50:09;100088.66;;;20.01;45.03
7333;BME280;3707;43.618;25.342;2023-04-22T11:52:42;100106.56;;;20.91;42.50
7333;BME280;3707;43.618;25.342;2023-04-22T11:55:10;100072.84;;;20.71;43.63
7333;BME280;3707;43.618;25.342;2023-04-22T11:57:37;100032.19;;;20.48;43.32
7333;BME280;3707;43.618;25.342;2023-04-22T12:00:09;100029.63;;;20.45;44.09
7333;BME280;3707;43.618;25.342;2023-04-22T12:02:36;100086.13;;;20.67;44.39
7333;BME280;3707;43.618;25.342;2023-04-22T12:05:03;100110.50;;;21.10;46.13
7333;BME280;3707;43.618;25.342;2023-04-22T12:07:32;100108.72;;;20.77;47.32
7333;BME280;3707;43.618;25.342;2023-04-22T12:09:58;100101.88;;;20.70;47.73
7333;BME280;3707;43.618;25.342;2023-04-22T12:12:28;100077.56;;;20.59;49.42
7333;BME280;3707;43.618;25.342;2023-04-22T12:14:54;100096.16;;;20.54;48.08
7333;BME280;3707;43.618;25.342;2023-04-22T12:17:23;100086.25;;;20.28;49.53
7333;BME280;3707;43.618;25.342;2023-04-22T12:19:53;100099.47;;;20.24;49.11
7333;BME280;3707;43.618;25.342;2023-04-22T12:22:24;100105.91;;;20.51;51.14
7333;BME280;3707;43.618;25.342;2023-04-22T12:24:52;100104.44;;;20.38;51.76
7333;BME280;3707;43.618;25.342;2023-04-22T12:27:19;100087.88;;;20.68;50.92
7333;BME280;3707;43.618;25.342;2023-04-22T12:29:50;100027.66;;;20.54;50.24
7333;BME280;3707;43.618;25.342;2023-04-22T12:32:18;100101.22;;;20.94;50.12
7333;BME280;3707;43.618;25.342;2023-04-22T12:34:45;100092.06;;;20.04;52.57
7333;BME280;3707;43.618;25.342;2023-04-22T12:37:12;100077.97;;;20.44;53.14
7333;BME280;3707;43.618;25.342;2023-04-22T12:39:39;100103.69;;;20.68;51.17
7333;BME280;3707;43.618;25.342;2023-04-22T12:42:07;100104.72;;;20.25;51.80
7333;BME280;3707;43.618;25.342;2023-04-22T12:44:34;100061.44;;;20.71;51.90
7333;BME280;3707;43.618;25.342;2023-04-22T12:47:01;100092.75;;;20.49;52.75
7333;BME280;3707;43.618;25.342;2023-04-22T12:49:28;100099.44;;;20.95;53.01
7333;BME280;3707;43.618;25.342;2023-04-22T12:51:55;100094.91;;;20.67;52.40
7333;BME280;3707;43.618;25.342;2023-04-22T12:54:22;100072.94;;;20.68;51.55
7333;BME280;3707;43.618;25.342;2023-04-22T12:56:49;100090.03;;;20.86;50.63
7333;BME280;3707;43.618;25.342;2023-04-22T12:59:18;100025.84;;;20.19;51.77
7333;BME280;3707;43.618;25.342;2023-04-22T13:01:45;100088.09;;;20.59;51.71